createdAt,value
2019-01-22T00:00:42.601Z,1012.85
2019-01-22T00:01:52.610Z,1012.86
2019-01-22T00:03:02.121Z,1012.8
2019-01-22T00:04:11.162Z,1012.79
2019-01-22T00:05:20.761Z,1012.78
2019-01-22T00:06:30.354Z,1012.76
2019-01-22T00:07:39.919Z,1012.72
2019-01-22T00:08:49.243Z,1012.72
2019-01-22T00:09:59.048Z,1012.67
2019-01-22T00:11:09.651Z,1012.68
2019-01-22T00:12:19.271Z,1012.63
2019-01-22T00:13:28.534Z,1012.6
2019-01-22T00:14:38.142Z,1012.54
2019-01-22T00:15:47.339Z,1012.51
2019-01-22T00:16:56.904Z,1012.5
2019-01-22T00:18:06.505Z,1012.46
2019-01-22T00:19:16.147Z,1012.47
2019-01-22T00:20:25.690Z,1012.41
2019-01-22T00:21:35.002Z,1012.4
2019-01-22T00:22:44.839Z,1012.42
2019-01-22T00:23:54.160Z,1012.36
2019-01-22T00:25:03.508Z,1012.34
2019-01-22T00:26:13.036Z,1012.34
2019-01-22T00:27:22.572Z,1012.27
2019-01-22T00:28:31.341Z,1012.27
2019-01-22T00:29:40.677Z,1012.25
2019-01-22T00:30:49.771Z,1012.26
2019-01-22T00:31:59.114Z,1012.25
2019-01-22T00:33:08.399Z,1012.26
2019-01-22T00:34:17.699Z,1012.23
2019-01-22T00:35:27.281Z,1012.21
2019-01-22T00:36:36.194Z,1012.17
2019-01-22T00:37:45.033Z,1012.17
2019-01-22T00:38:54.382Z,1012.15
2019-01-22T00:40:03.785Z,1012.15
2019-01-22T00:41:13.432Z,1012.15
2019-01-22T00:42:22.825Z,1012.14
2019-01-22T00:43:32.162Z,1012.1
2019-01-22T00:44:42.105Z,1012.09
2019-01-22T00:45:52.452Z,1012.1
2019-01-22T00:47:02.445Z,1012.07
2019-01-22T00:48:12.639Z,1012.04
2019-01-22T00:49:22.567Z,1012.05
2019-01-22T00:50:31.989Z,1012.02
2019-01-22T00:51:41.567Z,1011.98
2019-01-22T00:52:50.877Z,1011.94
2019-01-22T00:54:00.511Z,1011.95
2019-01-22T00:55:09.837Z,1011.91
2019-01-22T00:56:18.632Z,1011.93
2019-01-22T00:57:28.458Z,1011.91
2019-01-22T00:58:37.766Z,1011.91
2019-01-22T00:59:46.661Z,1011.83
2019-01-22T01:00:56.248Z,1011.88
2019-01-22T01:02:05.326Z,1011.81
2019-01-22T01:03:14.380Z,1011.78
2019-01-22T01:04:23.166Z,1011.77
2019-01-22T01:05:32.436Z,1011.76
2019-01-22T01:06:41.777Z,1011.73
2019-01-22T01:07:51.328Z,1011.76
2019-01-22T01:09:01.843Z,1011.72
2019-01-22T01:10:10.883Z,1011.74
2019-01-22T01:11:19.665Z,1011.73
2019-01-22T01:12:28.985Z,1011.7
2019-01-22T01:13:38.240Z,1011.72
2019-01-22T01:14:48.049Z,1011.68
2019-01-22T01:15:57.290Z,1011.72
2019-01-22T01:17:06.830Z,1011.69
2019-01-22T01:18:16.360Z,1011.7
2019-01-22T01:19:25.667Z,1011.66
2019-01-22T01:20:35.240Z,1011.61
2019-01-22T01:21:44.768Z,1011.6
2019-01-22T01:22:53.787Z,1011.56
2019-01-22T01:24:03.122Z,1011.57
2019-01-22T01:25:11.948Z,1011.56
2019-01-22T01:26:21.547Z,1011.49
2019-01-22T01:27:31.371Z,1011.5
2019-01-22T01:28:41.066Z,1011.52
2019-01-22T01:29:50.125Z,1011.49
2019-01-22T01:30:59.778Z,1011.52
2019-01-22T01:32:08.904Z,1011.49
2019-01-22T01:33:18.204Z,1011.46
2019-01-22T01:34:27.213Z,1011.46
2019-01-22T01:35:36.723Z,1011.43
2019-01-22T01:36:45.541Z,1011.38
2019-01-22T01:37:54.887Z,1011.38
2019-01-22T01:39:03.933Z,1011.34
2019-01-22T01:40:13.044Z,1011.32
2019-01-22T01:41:22.610Z,1011.28
2019-01-22T01:42:31.947Z,1011.27
2019-01-22T01:43:41.107Z,1011.21
2019-01-22T01:44:49.893Z,1011.21
2019-01-22T01:45:58.746Z,1011.16
2019-01-22T01:47:08.271Z,1011.18
2019-01-22T01:48:17.816Z,1011.13
2019-01-22T01:49:26.639Z,1011.15
2019-01-22T01:50:35.938Z,1011.14
2019-01-22T01:51:45.484Z,1011.14
2019-01-22T01:52:54.863Z,1011.15
2019-01-22T01:54:04.403Z,1011.08
2019-01-22T01:55:13.417Z,1011.1
2019-01-22T01:56:22.741Z,1011.03
2019-01-22T01:57:31.885Z,1011.02
2019-01-22T01:58:41.448Z,1011.01
2019-01-22T01:59:51.007Z,1011.04
2019-01-22T02:01:00.681Z,1010.97
2019-01-22T02:02:09.726Z,1010.96
2019-01-22T02:03:19.203Z,1011
2019-01-22T02:04:28.551Z,1011
2019-01-22T02:05:38.554Z,1010.96
2019-01-22T02:06:48.481Z,1010.95
2019-01-22T02:07:58.668Z,1010.97
2019-01-22T02:09:09.021Z,1010.91
2019-01-22T02:10:19.363Z,1010.91
2019-01-22T02:11:28.928Z,1010.87
2019-01-22T02:12:38.585Z,1010.84
2019-01-22T02:13:48.197Z,1010.81
2019-01-22T02:14:57.492Z,1010.84
2019-01-22T02:16:06.542Z,1010.77
2019-01-22T02:17:16.054Z,1010.73
2019-01-22T02:18:25.086Z,1010.77
2019-01-22T02:19:34.355Z,1010.71
2019-01-22T02:20:43.635Z,1010.69
2019-01-22T02:21:52.941Z,1010.68
2019-01-22T02:23:02.516Z,1010.64
2019-01-22T02:24:11.570Z,1010.63
2019-01-22T02:25:21.096Z,1010.6
2019-01-22T02:26:30.891Z,1010.56
2019-01-22T02:27:40.204Z,1010.58
2019-01-22T02:28:49.288Z,1010.52
2019-01-22T02:29:58.800Z,1010.52
2019-01-22T02:31:08.662Z,1010.44
2019-01-22T02:32:18.426Z,1010.47
2019-01-22T02:33:28.286Z,1010.44
2019-01-22T02:34:37.588Z,1010.41
2019-01-22T02:35:46.885Z,1010.43
2019-01-22T02:36:56.702Z,1010.38
2019-01-22T02:38:06.019Z,1010.36
2019-01-22T02:39:15.654Z,1010.36
2019-01-22T02:40:25.264Z,1010.34
2019-01-22T02:41:34.816Z,1010.31
2019-01-22T02:42:44.632Z,1010.29
2019-01-22T02:43:54.189Z,1010.23
2019-01-22T02:45:03.719Z,1010.2
2019-01-22T02:46:13.811Z,1010.15
2019-01-22T02:47:22.907Z,1010.12
2019-01-22T02:48:32.207Z,1010.15
2019-01-22T02:49:41.491Z,1010.14
2019-01-22T02:50:51.037Z,1010.08
2019-01-22T02:52:00.372Z,1010.03
2019-01-22T02:53:09.913Z,1010
2019-01-22T02:54:19.425Z,1009.99
2019-01-22T02:55:29.209Z,1009.95
2019-01-22T02:56:39.063Z,1009.93
2019-01-22T02:57:48.340Z,1009.88
2019-01-22T02:58:57.805Z,1009.84
2019-01-22T03:00:07.813Z,1009.82
2019-01-22T03:01:17.191Z,1009.79
2019-01-22T03:02:27.344Z,1009.8
2019-01-22T03:03:37.279Z,1009.72
2019-01-22T03:04:47.105Z,1009.68
2019-01-22T03:05:57.291Z,1009.64
2019-01-22T03:07:07.353Z,1009.68
2019-01-22T03:08:17.194Z,1009.68
2019-01-22T03:09:26.904Z,1009.63
2019-01-22T03:10:36.882Z,1009.64
2019-01-22T03:11:46.418Z,1009.61
2019-01-22T03:12:55.448Z,1009.66
2019-01-22T03:14:04.541Z,1009.61
2019-01-22T03:15:14.376Z,1009.62
2019-01-22T03:16:23.749Z,1009.58
2019-01-22T03:17:33.271Z,1009.57
2019-01-22T03:18:42.575Z,1009.56
2019-01-22T03:19:51.846Z,1009.51
2019-01-22T03:21:00.872Z,1009.52
2019-01-22T03:22:10.671Z,1009.49
2019-01-22T03:23:19.772Z,1009.46
2019-01-22T03:24:29.053Z,1009.42
2019-01-22T03:25:38.367Z,1009.33
2019-01-22T03:26:48.394Z,1009.35
2019-01-22T03:27:57.402Z,1009.3
2019-01-22T03:29:06.676Z,1009.3
2019-01-22T03:30:16.208Z,1009.29
2019-01-22T03:31:26.058Z,1009.28
2019-01-22T03:32:35.859Z,1009.25
2019-01-22T03:33:45.656Z,1009.22
2019-01-22T03:34:54.443Z,1009.22
2019-01-22T03:36:03.453Z,1009.18
2019-01-22T03:37:12.994Z,1009.15
2019-01-22T03:38:22.227Z,1009.14
2019-01-22T03:39:32.775Z,1009.08
2019-01-22T03:40:42.762Z,1009.04
2019-01-22T03:41:52.250Z,1009.06
2019-01-22T03:43:01.753Z,1009.06
2019-01-22T03:44:11.288Z,1009.03
2019-01-22T03:45:20.535Z,1009.06
2019-01-22T03:46:30.581Z,1009.07
2019-01-22T03:47:39.336Z,1009.01
2019-01-22T03:48:48.373Z,1009.01
2019-01-22T03:49:57.896Z,1008.98
2019-01-22T03:51:07.254Z,1008.95
2019-01-22T03:52:17.026Z,1008.94
2019-01-22T03:53:26.293Z,1008.91
2019-01-22T03:54:35.808Z,1008.93
2019-01-22T03:55:45.437Z,1008.93
2019-01-22T03:56:55.559Z,1008.96
2019-01-22T03:58:05.808Z,1008.92
2019-01-22T03:59:15.708Z,1008.93
2019-01-22T04:00:25.777Z,1008.87
2019-01-22T04:01:35.839Z,1008.86
2019-01-22T04:02:45.453Z,1008.86
2019-01-22T04:03:55.291Z,1008.85
2019-01-22T04:05:04.578Z,1008.81
2019-01-22T04:06:13.895Z,1008.78
2019-01-22T04:07:23.379Z,1008.78
2019-01-22T04:08:32.869Z,1008.77
2019-01-22T04:09:42.358Z,1008.71
2019-01-22T04:10:51.915Z,1008.71
2019-01-22T04:12:01.443Z,1008.71
2019-01-22T04:13:11.214Z,1008.69
2019-01-22T04:14:20.530Z,1008.65
2019-01-22T04:15:29.778Z,1008.64
2019-01-22T04:16:39.616Z,1008.7
2019-01-22T04:17:49.241Z,1008.62
2019-01-22T04:18:58.614Z,1008.65
2019-01-22T04:20:09.646Z,1008.61
2019-01-22T04:21:18.919Z,1008.58
2019-01-22T04:22:28.246Z,1008.59
2019-01-22T04:23:37.034Z,1008.55
2019-01-22T04:24:46.294Z,1008.52
2019-01-22T04:25:56.082Z,1008.47
2019-01-22T04:27:05.602Z,1008.49
2019-01-22T04:28:15.122Z,1008.46
2019-01-22T04:29:24.677Z,1008.42
2019-01-22T04:30:34.495Z,1008.42
2019-01-22T04:31:43.986Z,1008.37
2019-01-22T04:32:53.812Z,1008.35
2019-01-22T04:34:03.102Z,1008.32
2019-01-22T04:35:12.681Z,1008.28
2019-01-22T04:36:22.238Z,1008.26
2019-01-22T04:37:32.049Z,1008.24
2019-01-22T04:38:41.343Z,1008.19
2019-01-22T04:39:50.902Z,1008.19
2019-01-22T04:41:00.461Z,1008.16
2019-01-22T04:42:10.071Z,1008.15
2019-01-22T04:43:19.595Z,1008.1
2019-01-22T04:44:29.360Z,1008.12
2019-01-22T04:45:38.651Z,1008.07
2019-01-22T04:46:48.663Z,1008.05
2019-01-22T04:47:58.605Z,1008.03
2019-01-22T04:49:08.887Z,1008.03
2019-01-22T04:50:19.439Z,1007.97
2019-01-22T04:51:28.894Z,1007.99
2019-01-22T04:52:38.531Z,1007.98
2019-01-22T04:53:48.577Z,1007.92
2019-01-22T04:54:58.174Z,1007.91
2019-01-22T04:56:07.723Z,1007.89
2019-01-22T04:57:17.818Z,1007.92
2019-01-22T04:58:27.154Z,1007.87
2019-01-22T04:59:36.735Z,1007.88
2019-01-22T05:00:46.265Z,1007.85
2019-01-22T05:01:55.521Z,1007.85
2019-01-22T05:03:05.047Z,1007.84
2019-01-22T05:04:14.833Z,1007.85
2019-01-22T05:05:24.594Z,1007.8
2019-01-22T05:06:33.904Z,1007.79
2019-01-22T05:07:43.197Z,1007.79
2019-01-22T05:08:52.752Z,1007.76
2019-01-22T05:10:02.027Z,1007.77
2019-01-22T05:11:10.874Z,1007.75
2019-01-22T05:12:20.429Z,1007.78
2019-01-22T05:13:29.661Z,1007.75
2019-01-22T05:14:39.225Z,1007.72
2019-01-22T05:15:48.729Z,1007.74
2019-01-22T05:16:58.489Z,1007.7
2019-01-22T05:18:07.536Z,1007.68
2019-01-22T05:19:17.062Z,1007.68
2019-01-22T05:20:26.096Z,1007.69
2019-01-22T05:21:35.348Z,1007.66
2019-01-22T05:22:44.353Z,1007.64
2019-01-22T05:23:53.107Z,1007.64
2019-01-22T05:25:02.618Z,1007.65
2019-01-22T05:26:11.870Z,1007.61
2019-01-22T05:27:21.424Z,1007.58
2019-01-22T05:28:30.715Z,1007.6
2019-01-22T05:29:40.176Z,1007.59
2019-01-22T05:30:49.710Z,1007.54
2019-01-22T05:31:58.733Z,1007.53
2019-01-22T05:33:07.758Z,1007.49
2019-01-22T05:34:17.790Z,1007.45
2019-01-22T05:35:27.800Z,1007.5
2019-01-22T05:36:37.333Z,1007.49
2019-01-22T05:37:47.198Z,1007.48
2019-01-22T05:38:57.240Z,1007.43
2019-01-22T05:40:07.014Z,1007.42
2019-01-22T05:41:16.942Z,1007.45
2019-01-22T05:42:26.587Z,1007.46
2019-01-22T05:43:35.889Z,1007.44
2019-01-22T05:44:45.297Z,1007.4
2019-01-22T05:45:54.764Z,1007.36
2019-01-22T05:47:04.935Z,1007.3
2019-01-22T05:48:14.475Z,1007.32
2019-01-22T05:49:23.746Z,1007.33
2019-01-22T05:50:33.333Z,1007.31
2019-01-22T05:51:42.873Z,1007.26
2019-01-22T05:52:52.394Z,1007.22
2019-01-22T05:54:01.170Z,1007.24
2019-01-22T05:55:10.700Z,1007.23
2019-01-22T05:56:20.004Z,1007.23
2019-01-22T05:57:29.515Z,1007.21
2019-01-22T05:58:39.047Z,1007.2
2019-01-22T05:59:48.556Z,1007.19
2019-01-22T06:00:57.546Z,1007.15
2019-01-22T06:02:06.539Z,1007.16
2019-01-22T06:03:16.283Z,1007.14
2019-01-22T06:04:25.513Z,1007.13
2019-01-22T06:05:35.238Z,1007.15
2019-01-22T06:06:44.464Z,1007.1
2019-01-22T06:07:53.687Z,1007.08
2019-01-22T06:09:03.190Z,1007.08
2019-01-22T06:10:12.695Z,1007.13
2019-01-22T06:11:22.479Z,1007.07
2019-01-22T06:12:33.050Z,1007.07
2019-01-22T06:13:42.858Z,1007.04
2019-01-22T06:14:52.309Z,1007
2019-01-22T06:16:01.805Z,1007
2019-01-22T06:17:11.588Z,1007.04
2019-01-22T06:18:20.899Z,1007.02
2019-01-22T06:19:30.393Z,1007
2019-01-22T06:20:39.615Z,1006.97
2019-01-22T06:21:48.854Z,1006.96
2019-01-22T06:22:58.347Z,1006.93
2019-01-22T06:24:08.346Z,1006.89
2019-01-22T06:25:17.089Z,1006.87
2019-01-22T06:26:26.640Z,1006.86
2019-01-22T06:27:35.879Z,1006.8
2019-01-22T06:28:44.894Z,1006.81
2019-01-22T06:29:54.204Z,1006.81
2019-01-22T06:31:03.456Z,1006.79
2019-01-22T06:32:13.414Z,1006.78
2019-01-22T06:33:22.636Z,1006.74
2019-01-22T06:34:31.843Z,1006.75
2019-01-22T06:35:40.834Z,1006.75
2019-01-22T06:36:50.798Z,1006.72
2019-01-22T06:38:00.063Z,1006.73
2019-01-22T06:39:09.566Z,1006.73
2019-01-22T06:40:19.926Z,1006.72
2019-01-22T06:41:29.646Z,1006.69
2019-01-22T06:42:38.349Z,1006.65
2019-01-22T06:43:47.799Z,1006.69
2019-01-22T06:44:57.311Z,1006.69
2019-01-22T06:46:06.301Z,1006.67
2019-01-22T06:47:15.802Z,1006.64
2019-01-22T06:48:25.145Z,1006.62
2019-01-22T06:49:34.618Z,1006.55
2019-01-22T06:50:43.359Z,1006.56
2019-01-22T06:51:52.360Z,1006.53
2019-01-22T06:53:01.318Z,1006.45
2019-01-22T06:54:11.054Z,1006.47
2019-01-22T06:55:20.334Z,1006.42
2019-01-22T06:56:29.327Z,1006.41
2019-01-22T06:57:38.861Z,1006.42
2019-01-22T06:58:48.100Z,1006.36
2019-01-22T06:59:57.315Z,1006.31
2019-01-22T07:01:06.303Z,1006.3
2019-01-22T07:02:15.258Z,1006.27
2019-01-22T07:03:24.732Z,1006.25
2019-01-22T07:04:33.936Z,1006.21
2019-01-22T07:05:43.158Z,1006.2
2019-01-22T07:06:52.418Z,1006.19
2019-01-22T07:08:01.873Z,1006.18
2019-01-22T07:09:11.364Z,1006.2
2019-01-22T07:10:21.130Z,1006.19
2019-01-22T07:11:30.856Z,1006.16
2019-01-22T07:12:40.091Z,1006.17
2019-01-22T07:13:49.590Z,1006.2
2019-01-22T07:14:58.390Z,1006.17
2019-01-22T07:16:08.378Z,1006.23
2019-01-22T07:17:19.661Z,1006.19
2019-01-22T07:18:28.665Z,1006.15
2019-01-22T07:19:38.009Z,1006.19
2019-01-22T07:20:47.742Z,1006.14
2019-01-22T07:21:56.723Z,1006.16
2019-01-22T07:23:05.709Z,1006.15
2019-01-22T07:24:15.191Z,1006.11
2019-01-22T07:25:24.492Z,1006.08
2019-01-22T07:26:33.738Z,1006.11
2019-01-22T07:27:43.060Z,1006.12
2019-01-22T07:28:52.049Z,1006.07
2019-01-22T07:30:01.308Z,1006.02
2019-01-22T07:31:10.541Z,1005.95
2019-01-22T07:32:20.337Z,1005.92
2019-01-22T07:33:29.387Z,1005.88
2019-01-22T07:34:38.417Z,1005.82
2019-01-22T07:35:48.164Z,1005.82
2019-01-22T07:36:57.919Z,1005.75
2019-01-22T07:38:07.197Z,1005.71
2019-01-22T07:39:16.449Z,1005.67
2019-01-22T07:40:26.225Z,1005.71
2019-01-22T07:41:35.549Z,1005.74
2019-01-22T07:42:44.803Z,1005.72
2019-01-22T07:43:54.071Z,1005.8
2019-01-22T07:45:03.331Z,1005.73
2019-01-22T07:46:12.354Z,1005.73
2019-01-22T07:47:21.878Z,1005.79
2019-01-22T07:48:31.626Z,1005.76
2019-01-22T07:49:40.644Z,1005.73
2019-01-22T07:50:49.951Z,1005.73
2019-01-22T07:51:59.510Z,1005.77
2019-01-22T07:53:09.348Z,1005.73
2019-01-22T07:54:18.891Z,1005.72
2019-01-22T07:55:28.179Z,1005.74
2019-01-22T07:56:37.706Z,1005.66
2019-01-22T07:57:46.979Z,1005.61
2019-01-22T07:58:55.796Z,1005.62
2019-01-22T08:00:05.103Z,1005.69
2019-01-22T08:01:15.379Z,1005.59
2019-01-22T08:02:24.607Z,1005.62
2019-01-22T08:03:34.135Z,1005.61
2019-01-22T08:04:43.679Z,1005.57
2019-01-22T08:05:53.424Z,1005.64
2019-01-22T08:07:02.478Z,1005.59
2019-01-22T08:08:11.972Z,1005.6
2019-01-22T08:09:20.959Z,1005.59
2019-01-22T08:10:30.201Z,1005.56
2019-01-22T08:11:39.987Z,1005.56
2019-01-22T08:12:49.519Z,1005.54
2019-01-22T08:13:58.518Z,1005.52
2019-01-22T08:15:08.030Z,1005.5
2019-01-22T08:16:17.291Z,1005.52
2019-01-22T08:17:26.871Z,1005.54
2019-01-22T08:18:36.370Z,1005.49
2019-01-22T08:19:45.946Z,1005.48
2019-01-22T08:20:55.510Z,1005.45
2019-01-22T08:22:04.314Z,1005.43
2019-01-22T08:23:14.024Z,1005.44
2019-01-22T08:24:23.073Z,1005.45
2019-01-22T08:25:32.346Z,1005.48
2019-01-22T08:26:41.636Z,1005.51
2019-01-22T08:27:50.951Z,1005.5
2019-01-22T08:29:00.274Z,1005.49
2019-01-22T08:30:09.038Z,1005.44
2019-01-22T08:31:18.378Z,1005.4
2019-01-22T08:32:27.708Z,1005.32
2019-01-22T08:33:37.375Z,1005.32
2019-01-22T08:34:47.432Z,1005.38
2019-01-22T08:35:56.707Z,1005.32
2019-01-22T08:37:05.940Z,1005.34
2019-01-22T08:38:15.473Z,1005.37
2019-01-22T08:39:24.608Z,1005.34
2019-01-22T08:40:34.420Z,1005.31
2019-01-22T08:41:43.469Z,1005.3
2019-01-22T08:42:53.018Z,1005.28
2019-01-22T08:44:02.766Z,1005.27
2019-01-22T08:45:11.541Z,1005.2
2019-01-22T08:46:20.544Z,1005.24
2019-01-22T08:47:29.606Z,1005.22
2019-01-22T08:48:38.368Z,1005.21
2019-01-22T08:49:47.364Z,1005.22
2019-01-22T08:50:56.402Z,1005.18
2019-01-22T08:52:05.968Z,1005.15
2019-01-22T08:53:14.984Z,1005.14
2019-01-22T08:54:24.745Z,1005.12
2019-01-22T08:55:34.561Z,1005.12
2019-01-22T08:56:43.582Z,1005.11
2019-01-22T08:57:53.497Z,1005.15
2019-01-22T08:59:04.397Z,1005.14
2019-01-22T09:00:16.772Z,1005.1
2019-01-22T09:01:26.965Z,1005.04
2019-01-22T09:02:40.547Z,1005.1
2019-01-22T09:03:49.565Z,1005.06
2019-01-22T09:04:59.145Z,1005.08
2019-01-22T09:06:08.187Z,1005.04
2019-01-22T09:07:17.531Z,1005.06
2019-01-22T09:08:27.123Z,1005.06
2019-01-22T09:09:36.412Z,1005.07
2019-01-22T09:10:46.000Z,1005.07
2019-01-22T09:11:55.307Z,1005.05
2019-01-22T09:13:04.581Z,1005.08
2019-01-22T09:14:13.598Z,1005.03
2019-01-22T09:15:22.912Z,1005.02
2019-01-22T09:16:32.465Z,1005.01
2019-01-22T09:17:41.737Z,1004.97
2019-01-22T09:18:50.996Z,1004.97
2019-01-22T09:20:00.382Z,1004.99
2019-01-22T09:21:09.741Z,1004.95
2019-01-22T09:22:18.809Z,1004.94
2019-01-22T09:23:28.097Z,1004.89
2019-01-22T09:24:36.900Z,1004.9
2019-01-22T09:25:46.229Z,1004.88
2019-01-22T09:26:55.531Z,1004.81
2019-01-22T09:28:04.553Z,1004.8
2019-01-22T09:29:14.019Z,1004.75
2019-01-22T09:30:25.134Z,1004.73
2019-01-22T09:31:34.910Z,1004.73
2019-01-22T09:32:43.704Z,1004.72
2019-01-22T09:33:53.006Z,1004.71
2019-01-22T09:35:02.269Z,1004.67
2019-01-22T09:36:15.221Z,1004.67
2019-01-22T09:37:24.508Z,1004.69
2019-01-22T09:38:34.144Z,1004.66
2019-01-22T09:39:43.949Z,1004.65
2019-01-22T09:40:54.032Z,1004.61
2019-01-22T09:42:03.834Z,1004.58
2019-01-22T09:43:13.298Z,1004.59
2019-01-22T09:44:22.821Z,1004.54
2019-01-22T09:45:32.558Z,1004.52
2019-01-22T09:46:41.785Z,1004.53
2019-01-22T09:47:51.227Z,1004.52
2019-01-22T09:49:00.290Z,1004.45
2019-01-22T09:50:09.851Z,1004.52
2019-01-22T09:51:19.180Z,1004.45
2019-01-22T09:52:28.476Z,1004.4
2019-01-22T09:53:37.535Z,1004.36
2019-01-22T09:54:47.573Z,1004.36
2019-01-22T09:56:00.675Z,1004.35
2019-01-22T09:57:10.587Z,1004.29
2019-01-22T09:58:19.845Z,1004.27
2019-01-22T09:59:28.620Z,1004.3
2019-01-22T10:00:38.446Z,1004.27
2019-01-22T10:01:47.756Z,1004.25
2019-01-22T10:02:57.264Z,1004.23
2019-01-22T10:04:06.986Z,1004.15
2019-01-22T10:05:16.780Z,1004.2
2019-01-22T10:06:26.222Z,1004.17
2019-01-22T10:07:35.475Z,1004.15
2019-01-22T10:08:44.579Z,1004.14
2019-01-22T10:09:53.588Z,1004.11
2019-01-22T10:11:02.842Z,1004.07
2019-01-22T10:12:12.342Z,1004.05
2019-01-22T10:13:21.369Z,1004.05
2019-01-22T10:14:30.636Z,1003.95
2019-01-22T10:15:39.993Z,1003.97
2019-01-22T10:16:49.265Z,1003.94
2019-01-22T10:17:58.584Z,1004.04
2019-01-22T10:19:07.879Z,1003.95
2019-01-22T10:20:16.650Z,1004.01
2019-01-22T10:21:25.725Z,1003.95
2019-01-22T10:22:35.003Z,1003.96
2019-01-22T10:23:46.786Z,1003.9
2019-01-22T10:24:56.744Z,1003.85
2019-01-22T10:26:05.795Z,1003.78
2019-01-22T10:27:15.365Z,1003.79
2019-01-22T10:28:24.651Z,1003.76
2019-01-22T10:29:34.448Z,1003.75
2019-01-22T10:30:43.783Z,1003.77
2019-01-22T10:31:53.101Z,1003.68
2019-01-22T10:33:02.436Z,1003.68
2019-01-22T10:34:11.994Z,1003.65
2019-01-22T10:35:21.057Z,1003.67
2019-01-22T10:36:30.900Z,1003.67
2019-01-22T10:37:39.913Z,1003.67
2019-01-22T10:38:49.192Z,1003.67
2019-01-22T10:39:58.932Z,1003.63
2019-01-22T10:41:08.689Z,1003.68
2019-01-22T10:42:18.441Z,1003.63
2019-01-22T10:43:27.216Z,1003.63
2019-01-22T10:44:36.498Z,1003.59
2019-01-22T10:45:45.600Z,1003.49
2019-01-22T10:46:54.627Z,1003.46
2019-01-22T10:48:03.646Z,1003.47
2019-01-22T10:49:12.931Z,1003.38
2019-01-22T10:50:22.264Z,1003.4
2019-01-22T10:51:36.407Z,1003.35
2019-01-22T10:52:45.513Z,1003.38
2019-01-22T10:53:55.045Z,1003.3
2019-01-22T10:55:04.545Z,1003.22
2019-01-22T10:56:13.869Z,1003.26
2019-01-22T10:57:23.158Z,1003.24
2019-01-22T10:58:32.743Z,1003.24
2019-01-22T10:59:41.845Z,1003.17
2019-01-22T11:00:51.140Z,1003.17
2019-01-22T11:02:00.467Z,1003.15
2019-01-22T11:03:09.793Z,1003.19
2019-01-22T11:04:18.586Z,1003.17
2019-01-22T11:05:28.354Z,1003.15
2019-01-22T11:06:37.666Z,1003.17
2019-01-22T11:07:46.913Z,1003.28
2019-01-22T11:08:56.008Z,1003.28
2019-01-22T11:10:05.337Z,1003.22
2019-01-22T11:11:14.364Z,1003.22
2019-01-22T11:12:23.370Z,1003.2
2019-01-22T11:13:32.404Z,1003.2
2019-01-22T11:14:41.675Z,1003.16
2019-01-22T11:15:51.463Z,1003.19
2019-01-22T11:17:00.979Z,1003.19
2019-01-22T11:18:10.753Z,1003.19
2019-01-22T11:19:20.037Z,1003.21
2019-01-22T11:20:33.145Z,1003.24
2019-01-22T11:21:42.484Z,1003.15
2019-01-22T11:22:51.832Z,1003.12
2019-01-22T11:24:01.178Z,1003.17
2019-01-22T11:25:10.494Z,1003.15
2019-01-22T11:26:19.277Z,1003.21
2019-01-22T11:27:28.565Z,1003.22
2019-01-22T11:28:38.116Z,1003.16
2019-01-22T11:29:47.453Z,1003.12
2019-01-22T11:30:56.230Z,1003.12
2019-01-22T11:32:05.743Z,1003.1
2019-01-22T11:33:14.515Z,1003.11
2019-01-22T11:34:24.047Z,1003.1
2019-01-22T11:35:33.808Z,1003.05
2019-01-22T11:36:43.109Z,1003.05
2019-01-22T11:37:52.740Z,1002.98
2019-01-22T11:39:02.033Z,1002.99
2019-01-22T11:40:11.591Z,1002.95
2019-01-22T11:41:20.889Z,1002.94
2019-01-22T11:42:29.672Z,1002.92
2019-01-22T11:43:38.747Z,1002.91
2019-01-22T11:44:47.595Z,1002.97
2019-01-22T11:45:57.186Z,1002.91
2019-01-22T11:47:05.986Z,1002.91
2019-01-22T11:48:15.312Z,1002.93
2019-01-22T11:49:25.162Z,1002.89
2019-01-22T11:50:34.675Z,1002.9
2019-01-22T11:51:44.026Z,1002.87
2019-01-22T11:52:52.772Z,1002.9
2019-01-22T11:54:02.341Z,1002.82
2019-01-22T11:55:11.902Z,1002.81
2019-01-22T11:56:21.217Z,1002.79
2019-01-22T11:57:30.255Z,1002.75
2019-01-22T11:58:39.576Z,1002.68
2019-01-22T11:59:49.167Z,1002.64
2019-01-22T12:00:58.219Z,1002.7
2019-01-22T12:02:07.548Z,1002.65
2019-01-22T12:03:17.079Z,1002.6
2019-01-22T12:04:26.346Z,1002.57
2019-01-22T12:05:35.963Z,1002.53
2019-01-22T12:06:44.744Z,1002.49
2019-01-22T12:07:54.318Z,1002.47
2019-01-22T12:09:03.087Z,1002.52
2019-01-22T12:10:12.863Z,1002.46
2019-01-22T12:11:22.742Z,1002.52
2019-01-22T12:12:32.496Z,1002.44
2019-01-22T12:13:42.540Z,1002.39
2019-01-22T12:14:59.210Z,1002.5
2019-01-22T12:16:08.767Z,1002.45
2019-01-22T12:17:18.314Z,1002.43
2019-01-22T12:18:27.606Z,1002.46
2019-01-22T12:19:37.506Z,1002.35
2019-01-22T12:20:47.169Z,1002.35
2019-01-22T12:21:55.989Z,1002.33
2019-01-22T12:23:05.470Z,1002.36
2019-01-22T12:24:14.534Z,1002.35
2019-01-22T12:25:24.088Z,1002.37
2019-01-22T12:26:33.705Z,1002.35
2019-01-22T12:27:42.475Z,1002.35
2019-01-22T12:28:51.483Z,1002.33
2019-01-22T12:30:01.373Z,1002.35
2019-01-22T12:31:11.491Z,1002.35
2019-01-22T12:32:20.767Z,1002.31
2019-01-22T12:33:30.304Z,1002.27
2019-01-22T12:34:39.317Z,1002.33
2019-01-22T12:35:48.647Z,1002.3
2019-01-22T12:36:58.204Z,1002.31
2019-01-22T12:38:07.585Z,1002.2
2019-01-22T12:39:16.659Z,1002.24
2019-01-22T12:40:26.230Z,1002.17
2019-01-22T12:41:35.781Z,1002.17
2019-01-22T12:42:45.337Z,1002.23
2019-01-22T12:43:54.640Z,1002.2
2019-01-22T12:45:03.971Z,1002.16
2019-01-22T12:46:13.037Z,1002.13
2019-01-22T12:47:22.366Z,1002.12
2019-01-22T12:48:31.797Z,1002.05
2019-01-22T12:49:41.121Z,1002.04
2019-01-22T12:50:50.453Z,1001.97
2019-01-22T12:51:59.824Z,1001.96
2019-01-22T12:53:08.965Z,1001.93
2019-01-22T12:54:17.733Z,1001.89
2019-01-22T12:55:26.844Z,1001.87
2019-01-22T12:56:36.887Z,1001.85
2019-01-22T12:57:46.431Z,1001.79
2019-01-22T12:58:55.442Z,1001.79
2019-01-22T13:00:04.528Z,1001.78
2019-01-22T13:01:14.325Z,1001.79
2019-01-22T13:02:23.875Z,1001.68
2019-01-22T13:03:33.453Z,1001.7
2019-01-22T13:04:42.744Z,1001.73
2019-01-22T13:05:52.786Z,1001.6
2019-01-22T13:07:02.101Z,1001.55
2019-01-22T13:08:11.992Z,1001.58
2019-01-22T13:09:21.545Z,1001.57
2019-01-22T13:10:30.851Z,1001.5
2019-01-22T13:11:40.464Z,1001.49
2019-01-22T13:12:49.505Z,1001.46
2019-01-22T13:13:58.313Z,1001.34
2019-01-22T13:15:07.733Z,1001.38
2019-01-22T13:16:17.354Z,1001.32
2019-01-22T13:17:26.494Z,1001.22
2019-01-22T13:18:37.486Z,1001.25
2019-01-22T13:19:46.609Z,1001.22
2019-01-22T13:20:56.106Z,1001.14
2019-01-22T13:22:05.094Z,1001.12
2019-01-22T13:23:14.386Z,1001.12
2019-01-22T13:24:25.620Z,1000.95
2019-01-22T13:25:35.703Z,1001.02
2019-01-22T13:26:44.798Z,1000.99
2019-01-22T13:27:53.612Z,1000.98
2019-01-22T13:29:03.242Z,1000.97
2019-01-22T13:30:13.014Z,1000.92
2019-01-22T13:31:23.119Z,1000.88
2019-01-22T13:32:32.740Z,1000.89
2019-01-22T13:33:42.274Z,1000.82
2019-01-22T13:34:51.634Z,1000.75
2019-01-22T13:36:01.065Z,1000.76
2019-01-22T13:37:10.357Z,1000.8
2019-01-22T13:38:19.920Z,1000.84
2019-01-22T13:39:29.747Z,1000.77
2019-01-22T13:40:39.393Z,1000.73
2019-01-22T13:41:48.740Z,1000.77
2019-01-22T13:42:58.347Z,1000.75
2019-01-22T13:44:07.734Z,1000.69
2019-01-22T13:45:17.349Z,1000.65
2019-01-22T13:46:27.412Z,1000.72
2019-01-22T13:47:36.729Z,1000.65
2019-01-22T13:48:46.260Z,1000.69
2019-01-22T13:49:55.572Z,1000.7
2019-01-22T13:51:05.180Z,1000.68
2019-01-22T13:52:14.212Z,1000.77
2019-01-22T13:53:23.348Z,1000.76
2019-01-22T13:54:33.032Z,1000.81
2019-01-22T13:55:42.111Z,1000.8
2019-01-22T13:56:51.416Z,1000.81
2019-01-22T13:58:00.995Z,1000.8
2019-01-22T13:59:10.566Z,1000.78
2019-01-22T14:00:19.705Z,1000.8
2019-01-22T14:01:29.252Z,1000.77
2019-01-22T14:02:38.823Z,1000.81
2019-01-22T14:03:47.899Z,1000.79